Leverett, Massachusetts
Current Conditions -  °F | °C
As of 10:52 PM on Friday 19 Dec 2014 (Local Time) from KORE Reporting Station
Few Clouds Few Clouds  
Wind Chill: 14°   Ceiling: Unl
Heat Index: 26°   Visibility: 10mi
Dew Point: 18°   Wind: 14mph
Humidity: 71%   Direction: 350°N
Pressure: 30.13"   Gusts: NA
Location:  42.45°N, 72.5°W
Report Text: KORE 200352Z AUTO 35012KT 10SM FEW022 M03/M08 A3013 RMK AO2 SLP211 T10331078
Loading
Personal Weather Stations






























Interactive Weather Map New forecast layout! Learn more

10-Day Weather Forecast

Advertisements
Track Severe Weather on mobile